KRKR

Robert S Kerr Airport

Poteau, Oklahoma, USA
METAR KRKR 190855Z AUTO 00000KT 10SM CLR 24/22 A2993 RMK AO2
Observed Flight Rules
Sep-19 @ 08:55 UTC (9 minutes ago) Visual Flight Rules
Visibility Clouds
10 miles
  • Clear skies
Temperatures Readings
Current 24°C / 75°F
Dewpoint 22°C / 72°F
Humidity 89%
Altimeter 29.93" Hg
Pressure 1014 hPa
Elevation 138
METAR KRKR 190855Z AUTO 00000KT 10SM CLR 24/22 A2993 RMK AO2
Observed Flight Rules
Sep-19 @ 08:55 UTC
(9 minutes ago)
VFR
Clouds
  • Clear skies
Temperature Dewpoint
24°C / 75°F 22°C / 72°F
Humidity Altimeter Pressure
89% 29.93" Hg 1014 hPa